Time;durP1;ratioP1;P1;durP2;ratioP2;P2;SDS_P1;SDS_P2;PMS_P1;PMS_P2;Temp;Humidity;BMP_temperature;BMP_pressure;BME280_temperature;BME280_humidity;BME280_pressure;Samples;Min_cycle;Max_cycle;Signal;HPM_P1;HPM_P2
2021/01/18 00:01:43;;;;;;;33.60;17.60;;;4.30;99.90;;;;;;4977474;28;20397;-62
2021/01/18 00:04:09;;;;;;;31.43;13.50;;;4.40;99.90;;;;;;4992028;28;20733;-62
2021/01/18 00:06:35;;;;;;;30.70;16.00;;;4.40;99.90;;;;;;4988119;28;20205;-62
2021/01/18 00:09:01;;;;;;;31.47;16.83;;;4.40;99.90;;;;;;4972483;28;20191;-63
2021/01/18 00:11:27;;;;;;;34.77;18.80;;;4.40;99.90;;;;;;4974510;28;20212;-63
2021/01/18 00:13:54;;;;;;;37.37;17.77;;;4.50;99.90;;;;;;4991959;28;20172;-60
2021/01/18 00:16:21;;;;;;;40.43;16.20;;;4.50;99.90;;;;;;4991132;28;20177;-62
2021/01/18 00:18:47;;;;;;;38.33;18.03;;;4.50;99.90;;;;;;4991063;28;20188;-64
2021/01/18 00:21:14;;;;;;;40.17;17.60;;;4.50;99.90;;;;;;4992058;28;20662;-62
2021/01/18 00:23:41;;;;;;;26.83;13.80;;;4.50;99.90;;;;;;4972890;28;20178;-63
2021/01/18 00:26:07;;;;;;;34.53;18.50;;;4.50;99.90;;;;;;4986722;28;20220;-60
2021/01/18 00:28:34;;;;;;;41.10;18.70;;;4.50;99.90;;;;;;4991479;28;20539;-62
2021/01/18 00:31:04;;;;;;;38.50;18.63;;;4.50;99.90;;;;;;4979040;28;20174;-60
2021/01/18 00:33:34;;;;;;;38.20;18.17;;;4.50;99.90;;;;;;4972429;28;20197;-62
2021/01/18 00:36:01;;;;;;;30.90;17.47;;;4.50;99.90;;;;;;4984776;28;20264;-63
2021/01/18 00:38:26;;;;;;;37.87;19.20;;;4.50;99.90;;;;;;4991411;28;20208;-62
2021/01/18 00:40:52;;;;;;;37.47;19.10;;;4.50;99.90;;;;;;4980876;28;20193;-62
2021/01/18 00:43:18;;;;;;;28.33;15.97;;;4.50;99.90;;;;;;4972507;28;20173;-62
2021/01/18 00:45:43;;;;;;;31.57;16.87;;;4.50;99.90;;;;;;4981500;28;20189;-65
2021/01/18 00:48:09;;;;;;;35.23;18.33;;;4.50;99.90;;;;;;4991241;28;20663;-62
2021/01/18 00:50:35;;;;;;;35.43;18.27;;;4.50;99.90;;;;;;4984106;28;20729;-61
2021/01/18 00:53:01;;;;;;;29.60;17.17;;;4.50;99.90;;;;;;4975080;28;20696;-62
2021/01/18 00:55:27;;;;;;;32.50;16.03;;;4.60;99.90;;;;;;4991662;28;20185;-59
2021/01/18 00:57:53;;;;;;;35.97;16.67;;;4.60;99.90;;;;;;4989913;28;20197;-61
2021/01/18 01:00:21;;;;;;;30.87;17.07;;;4.60;99.90;;;;;;4988042;28;20187;-64
2021/01/18 01:02:49;;;;;;;36.17;17.40;;;4.60;99.90;;;;;;4991313;28;20188;-62
2021/01/18 01:05:20;;;;;;;37.33;18.33;;;4.50;99.90;;;;;;4972615;28;20257;-63
2021/01/18 01:07:48;;;;;;;37.63;19.23;;;4.50;99.90;;;;;;4971847;28;20201;-63
2021/01/18 01:10:20;;;;;;;42.80;18.37;;;4.50;99.90;;;;;;4991025;28;20185;-62
2021/01/18 01:12:45;;;;;;;31.20;17.57;;;4.50;99.90;;;;;;4992597;28;20568;-62
2021/01/18 01:15:12;;;;;;;36.47;16.77;;;4.50;99.90;;;;;;4976750;28;20181;-62
2021/01/18 01:17:42;;;;;;;34.50;14.97;;;4.50;99.90;;;;;;4975054;28;20213;-64
2021/01/18 01:20:10;;;;;;;31.00;15.07;;;4.40;99.90;;;;;;4993176;28;20235;-62
2021/01/18 01:22:36;;;;;;;26.60;13.27;;;4.40;99.90;;;;;;4981993;28;20196;-62
2021/01/18 01:25:02;;;;;;;28.23;13.70;;;4.40;99.90;;;;;;4975485;28;20186;-63
2021/01/18 01:27:27;;;;;;;34.93;17.03;;;4.40;99.90;;;;;;4985690;28;20212;-62
2021/01/18 01:29:53;;;;;;;31.63;15.60;;;4.40;99.90;;;;;;4994041;28;20253;-63
2021/01/18 01:32:19;;;;;;;33.70;15.93;;;4.40;99.90;;;;;;4975242;28;20170;-64
2021/01/18 01:34:44;;;;;;;33.07;16.17;;;4.40;99.90;;;;;;4975146;28;20663;-62
2021/01/18 01:37:10;;;;;;;32.80;17.40;;;4.40;99.90;;;;;;4992905;28;20678;-62
2021/01/18 01:39:35;;;;;;;34.17;17.70;;;4.40;99.90;;;;;;4994492;28;20173;-61
2021/01/18 01:42:01;;;;;;;41.63;17.93;;;4.40;99.90;;;;;;4977747;28;20196;-63
2021/01/18 01:44:26;;;;;;;40.97;18.20;;;4.40;99.90;;;;;;4974903;28;20181;-63
2021/01/18 01:46:52;;;;;;;38.47;19.67;;;4.40;99.90;;;;;;4989242;28;20698;-62
2021/01/18 01:49:18;;;;;;;34.03;18.00;;;4.40;99.90;;;;;;4994371;28;20200;-62
2021/01/18 01:51:44;;;;;;;32.87;17.87;;;4.40;99.90;;;;;;4975133;28;20237;-62
2021/01/18 01:54:10;;;;;;;37.17;18.67;;;4.50;99.90;;;;;;4974881;28;20172;-62
2021/01/18 01:56:36;;;;;;;33.63;17.10;;;4.40;99.90;;;;;;4992124;28;20642;-62
2021/01/18 01:59:03;;;;;;;39.30;18.60;;;4.40;99.90;;;;;;4993942;28;20247;-64
2021/01/18 02:01:28;;;;;;;31.33;16.73;;;4.40;99.90;;;;;;4976690;28;20181;-62
2021/01/18 02:03:57;;;;;;;33.47;16.70;;;4.40;99.90;;;;;;4974818;28;20262;-63
2021/01/18 02:06:23;;;;;;;33.10;16.87;;;4.40;99.90;;;;;;4988884;28;20708;-59
2021/01/18 02:08:50;;;;;;;29.60;14.77;;;4.40;99.90;;;;;;4993643;28;20193;-63
2021/01/18 02:11:15;;;;;;;30.77;15.70;;;4.30;99.90;;;;;;4980875;28;20180;-59
2021/01/18 02:13:59;;;;;;;30.87;15.97;;;4.30;99.90;;;;;;4974369;28;20174;-62
2021/01/18 02:16:40;;;;;;;35.43;15.43;;;4.30;99.90;;;;;;4986292;28;20189;-62
2021/01/18 02:19:25;;;;;;;31.00;13.80;;;4.30;99.90;;;;;;4993876;28;20247;-64
2021/01/18 02:22:37;;;;;;;33.43;13.00;;;4.30;99.90;;;;;;4982613;28;20184;-62
2021/01/18 02:25:13;;;;;;;27.73;13.57;;;4.20;99.90;;;;;;4991967;28;20173;-64
2021/01/18 02:28:01;;;;;;;27.63;15.30;;;4.20;99.90;;;;;;4973914;28;20216;-63
2021/01/18 02:30:38;;;;;;;21.03;13.00;;;4.20;99.90;;;;;;4975165;28;20208;-63
2021/01/18 02:33:22;;;;;;;24.20;11.90;;;4.10;99.90;;;;;;4974263;28;20180;-62
2021/01/18 02:36:00;;;;;;;23.13;11.77;;;4.10;99.90;;;;;;4980536;28;20188;-62
2021/01/18 02:39:02;;;;;;;22.33;11.23;;;4.10;99.90;;;;;;4993222;28;20559;-60
2021/01/18 02:41:37;;;;;;;21.63;9.93;;;4.00;99.90;;;;;;4977989;28;20221;-62
2021/01/18 02:44:09;;;;;;;12.50;8.40;;;4.00;99.90;;;;;;4974010;28;20191;-62
2021/01/18 02:46:37;;;;;;;17.63;8.43;;;4.00;99.90;;;;;;4985496;28;20188;-63
2021/01/18 02:49:04;;;;;;;18.43;7.47;;;4.00;99.90;;;;;;4992987;28;20196;-63
2021/01/18 02:51:34;;;;;;;11.43;7.43;;;4.00;99.90;;;;;;4982424;28;20181;-61
2021/01/18 02:54:01;;;;;;;14.83;9.60;;;4.00;99.90;;;;;;4973743;28;20174;-63
2021/01/18 02:56:33;;;;;;;21.53;9.60;;;4.10;99.90;;;;;;4983160;28;20185;-64
2021/01/18 02:59:00;;;;;;;22.83;11.27;;;4.10;99.90;;;;;;4987933;28;20256;-63
2021/01/18 03:01:44;;;;;;;18.87;10.33;;;4.10;99.90;;;;;;4973677;28;20169;-63
2021/01/18 03:04:40;;;;;;;15.83;8.67;;;4.10;99.90;;;;;;4974646;28;20177;-63
2021/01/18 03:07:11;;;;;;;27.77;11.83;;;4.10;99.90;;;;;;4966986;28;20287;-63
2021/01/18 03:09:50;;;;;;;25.27;11.70;;;4.20;99.90;;;;;;4992857;28;20654;-64
2021/01/18 03:12:20;;;;;;;19.73;11.60;;;4.20;99.90;;;;;;4989424;28;20173;-64
2021/01/18 03:14:47;;;;;;;24.17;12.03;;;4.30;99.90;;;;;;4973367;28;20256;-64
2021/01/18 03:17:19;;;;;;;25.90;11.53;;;4.30;99.90;;;;;;4975173;28;20257;-63
2021/01/18 03:19:45;;;;;;;23.50;10.60;;;4.30;99.90;;;;;;4992800;28;20169;-63
2021/01/18 03:22:25;;;;;;;24.87;11.67;;;4.20;99.90;;;;;;4991009;28;20187;-62
2021/01/18 03:24:51;;;;;;;18.73;11.50;;;4.20;99.90;;;;;;4973501;28;20222;-63
2021/01/18 03:27:17;;;;;;;20.23;12.37;;;4.30;99.90;;;;;;4973912;28;20702;-63
2021/01/18 03:29:43;;;;;;;21.93;11.17;;;4.30;99.90;;;;;;4973106;28;20176;-62
2021/01/18 03:32:09;;;;;;;26.47;11.83;;;4.30;99.90;;;;;;4992520;28;20642;-60
2021/01/18 03:34:36;;;;;;;20.90;11.57;;;4.30;99.90;;;;;;4992277;28;20251;-63
2021/01/18 03:37:02;;;;;;;24.40;11.37;;;4.30;99.90;;;;;;4973642;28;21540;-62
2021/01/18 03:39:30;;;;;;;25.97;11.17;;;4.30;99.90;;;;;;4973237;28;20182;-63
2021/01/18 03:41:56;;;;;;;21.97;11.33;;;4.30;99.90;;;;;;4989284;28;20242;-60
2021/01/18 03:44:21;;;;;;;19.83;12.27;;;4.30;99.90;;;;;;4992215;28;20169;-63
2021/01/18 03:46:47;;;;;;;25.30;11.47;;;4.30;99.90;;;;;;4990394;28;20567;-63
2021/01/18 03:49:13;;;;;;;22.60;10.23;;;4.30;99.90;;;;;;4992318;28;20188;-63
2021/01/18 03:51:39;;;;;;;17.20;10.90;;;4.30;99.90;;;;;;4978709;28;20215;-60
2021/01/18 03:54:05;;;;;;;22.10;10.77;;;4.30;99.90;;;;;;4972844;28;20180;-63
2021/01/18 03:56:31;;;;;;;22.13;11.03;;;4.30;99.90;;;;;;4984195;28;21069;-62
2021/01/18 03:58:57;;;;;;;22.67;11.20;;;4.30;99.90;;;;;;4991925;28;20207;-61
2021/01/18 04:01:23;;;;;;;23.73;11.50;;;4.30;99.90;;;;;;4981432;28;20173;-60
2021/01/18 04:03:48;;;;;;;17.67;11.17;;;4.30;99.90;;;;;;4972781;28;20173;-64
2021/01/18 04:06:14;;;;;;;22.60;11.83;;;4.30;99.90;;;;;;4980070;28;20638;-62
2021/01/18 04:08:39;;;;;;;17.53;10.27;;;4.30;99.90;;;;;;4991691;28;20208;-63
2021/01/18 04:11:05;;;;;;;23.17;10.87;;;4.30;99.90;;;;;;4984900;28;20508;-63
2021/01/18 04:13:31;;;;;;;18.13;10.17;;;4.20;99.90;;;;;;4972555;28;20173;-63
2021/01/18 04:15:56;;;;;;;22.77;10.83;;;4.30;99.90;;;;;;4977810;28;20169;-61
2021/01/18 04:18:22;;;;;;;22.07;11.10;;;4.20;99.90;;;;;;4991506;28;20560;-61
2021/01/18 04:20:47;;;;;;;18.30;11.10;;;4.20;99.90;;;;;;4988073;28;20178;-63
2021/01/18 04:23:13;;;;;;;21.10;11.30;;;4.20;99.90;;;;;;4972647;28;20174;-63
2021/01/18 04:25:39;;;;;;;21.00;11.93;;;4.20;99.90;;;;;;4990351;28;20185;-62
2021/01/18 04:28:06;;;;;;;28.67;11.83;;;4.20;99.90;;;;;;4991443;28;20259;-62
2021/01/18 04:30:33;;;;;;;24.93;11.43;;;4.20;99.90;;;;;;4974965;28;20205;-63
2021/01/18 04:33:05;;;;;;;28.33;12.37;;;4.20;99.90;;;;;;4972535;28;20194;-63
2021/01/18 04:35:32;;;;;;;14.90;8.70;;;4.20;99.90;;;;;;4988320;28;20173;-61
2021/01/18 04:37:59;;;;;;;22.33;12.13;;;4.20;99.90;;;;;;4991434;28;20201;-62
2021/01/18 04:40:29;;;;;;;23.57;11.87;;;4.20;99.90;;;;;;4976884;28;20200;-61
2021/01/18 04:42:55;;;;;;;19.07;11.50;;;4.20;99.90;;;;;;4972460;28;20592;-63
2021/01/18 04:45:23;;;;;;;26.07;11.27;;;4.20;99.90;;;;;;4985898;28;20181;-63
2021/01/18 04:47:52;;;;;;;19.90;10.90;;;4.30;99.90;;;;;;4994192;28;20287;-62
2021/01/18 04:50:20;;;;;;;25.93;11.73;;;4.20;99.90;;;;;;4982518;28;20521;-63
2021/01/18 04:52:49;;;;;;;36.17;12.13;;;4.20;99.90;;;;;;4984017;28;20654;-62
2021/01/18 04:55:31;;;;;;;26.33;12.63;;;4.20;99.90;;;;;;4995499;28;20169;-62
2021/01/18 04:58:13;;;;;;;24.87;11.53;;;4.20;99.90;;;;;;4985690;28;20201;-63
2021/01/18 05:00:40;;;;;;;27.73;11.67;;;4.20;99.90;;;;;;4976101;28;20238;-62
2021/01/18 05:03:07;;;;;;;26.33;9.77;;;4.20;99.90;;;;;;4985386;28;20181;-60
2021/01/18 05:06:03;;;;;;;16.60;9.67;;;4.20;99.90;;;;;;4995410;28;20176;-63
2021/01/18 05:09:00;;;;;;;27.33;12.37;;;4.20;99.90;;;;;;4980533;28;20212;-62
2021/01/18 05:11:26;;;;;;;30.90;12.10;;;4.20;99.90;;;;;;4975682;28;20172;-62
2021/01/18 05:14:02;;;;;;;31.90;13.53;;;4.20;99.90;;;;;;4995172;28;20259;-62
2021/01/18 05:16:37;;;;;;;25.40;12.50;;;4.20;99.90;;;;;;4994477;28;20260;-63
2021/01/18 05:19:11;;;;;;;19.33;11.07;;;4.20;99.90;;;;;;4975236;28;20195;-62
2021/01/18 05:21:46;;;;;;;29.07;11.83;;;4.20;99.90;;;;;;4987430;28;20176;-63
2021/01/18 05:24:12;;;;;;;33.13;12.47;;;4.20;99.90;;;;;;4994906;28;20176;-61
2021/01/18 05:26:39;;;;;;;23.80;12.40;;;4.20;99.90;;;;;;4982628;28;20182;-62
2021/01/18 05:29:05;;;;;;;26.77;12.17;;;4.20;99.90;;;;;;4976587;28;20694;-61
2021/01/18 05:31:38;;;;;;;21.67;10.87;;;4.20;99.90;;;;;;4994703;28;20176;-63
2021/01/18 05:34:11;;;;;;;21.00;11.97;;;4.20;99.90;;;;;;4993385;28;20256;-62
2021/01/18 05:36:41;;;;;;;22.67;11.07;;;4.20;99.90;;;;;;4975106;28;20178;-66
2021/01/18 05:39:24;;;;;;;22.97;12.20;;;4.20;99.90;;;;;;4976739;28;20201;-65
2021/01/18 05:41:53;;;;;;;23.03;12.43;;;4.30;99.90;;;;;;4995532;28;20264;-65
2021/01/18 05:44:20;;;;;;;27.40;13.60;;;4.30;99.90;;;;;;4993021;28;20173;-65
2021/01/18 05:46:47;;;;;;;19.63;12.60;;;4.30;99.90;;;;;;4975564;28;20683;-65
2021/01/18 05:49:13;;;;;;;27.17;13.13;;;4.30;99.90;;;;;;4982051;28;20220;-64
2021/01/18 05:51:39;;;;;;;22.53;10.30;;;4.30;99.90;;;;;;4987367;28;20189;-65
2021/01/18 05:54:09;;;;;;;24.33;12.90;;;4.30;99.90;;;;;;4980208;28;20172;-65
2021/01/18 05:56:44;;;;;;;21.40;9.57;;;4.30;99.90;;;;;;4994802;28;20569;-66
2021/01/18 05:59:24;;;;;;;32.00;14.37;;;4.30;99.90;;;;;;4989185;28;20256;-64
2021/01/18 06:01:52;;;;;;;33.23;16.13;;;4.30;99.90;;;;;;4975571;28;20545;-65
2021/01/18 06:04:20;;;;;;;26.63;14.17;;;4.40;99.90;;;;;;4980648;28;20576;-63
2021/01/18 06:06:55;;;;;;;31.63;12.90;;;4.30;99.90;;;;;;4994574;28;20290;-65
2021/01/18 06:09:23;;;;;;;27.17;13.50;;;4.40;99.90;;;;;;4989191;28;20164;-65
2021/01/18 06:11:49;;;;;;;25.53;12.97;;;4.40;99.90;;;;;;4975459;28;20166;-65
2021/01/18 06:14:18;;;;;;;25.13;13.23;;;4.40;99.90;;;;;;4978862;28;20179;-65
2021/01/18 06:16:47;;;;;;;29.17;11.23;;;4.40;99.90;;;;;;4993735;28;20185;-63
2021/01/18 06:19:24;;;;;;;31.10;13.70;;;4.40;99.90;;;;;;4975113;28;20180;-66
2021/01/18 06:21:49;;;;;;;25.10;13.33;;;4.30;99.90;;;;;;4974967;28;20256;-65
2021/01/18 06:24:16;;;;;;;31.90;13.17;;;4.30;99.90;;;;;;4993875;28;20255;-65
2021/01/18 06:26:42;;;;;;;26.90;12.53;;;4.30;99.90;;;;;;4993960;28;20382;-65
2021/01/18 06:29:08;;;;;;;25.13;12.93;;;4.30;99.90;;;;;;4976031;28;20769;-66
2021/01/18 06:31:44;;;;;;;23.00;10.83;;;4.30;99.90;;;;;;4974718;28;20224;-65
2021/01/18 06:34:10;;;;;;;26.10;12.93;;;4.30;99.90;;;;;;4991734;28;20176;-65
2021/01/18 06:36:37;;;;;;;24.57;13.27;;;4.30;99.90;;;;;;4993835;28;20173;-65
2021/01/18 06:39:06;;;;;;;27.00;12.70;;;4.30;99.90;;;;;;4977669;28;20217;-66
2021/01/18 06:41:33;;;;;;;35.23;13.93;;;4.30;99.90;;;;;;4974549;28;20165;-65
2021/01/18 06:44:00;;;;;;;27.80;14.43;;;4.30;99.90;;;;;;4988695;28;20181;-64
2021/01/18 06:46:34;;;;;;;29.00;13.67;;;4.30;99.90;;;;;;4982730;28;20666;-66
2021/01/18 06:49:00;;;;;;;26.60;14.50;;;4.30;99.90;;;;;;4973907;28;20479;-65
2021/01/18 06:51:27;;;;;;;37.30;13.33;;;4.30;99.90;;;;;;4983732;28;20207;-65
2021/01/18 06:53:57;;;;;;;18.27;12.60;;;4.30;99.90;;;;;;4993460;28;20199;-65
2021/01/18 06:56:23;;;;;;;31.73;15.03;;;4.30;99.90;;;;;;4984014;28;20189;-65
2021/01/18 06:58:51;;;;;;;26.27;11.83;;;4.30;99.90;;;;;;4973466;28;20193;-65
2021/01/18 07:01:27;;;;;;;33.03;14.43;;;4.30;99.90;;;;;;4981114;28;20212;-66
2021/01/18 07:04:01;;;;;;;31.97;14.93;;;4.30;99.90;;;;;;4993331;28;20194;-66
2021/01/18 07:06:33;;;;;;;37.77;14.43;;;4.30;99.90;;;;;;4984887;28;20268;-66
2021/01/18 07:09:02;;;;;;;30.00;15.63;;;4.30;99.90;;;;;;4973428;28;20292;-65
2021/01/18 07:11:28;;;;;;;30.27;14.23;;;4.30;99.90;;;;;;4980205;28;20172;-62
2021/01/18 07:13:54;;;;;;;30.10;15.00;;;4.30;99.90;;;;;;4989839;28;20229;-65
2021/01/18 07:16:21;;;;;;;30.83;15.17;;;4.30;99.90;;;;;;4973901;28;20703;-63
2021/01/18 07:18:57;;;;;;;25.17;14.10;;;4.30;99.90;;;;;;4974796;28;20198;-65
2021/01/18 07:21:27;;;;;;;26.37;14.30;;;4.20;99.90;;;;;;4993431;28;20642;-65
2021/01/18 07:23:57;;;;;;;29.90;14.77;;;4.30;99.90;;;;;;4990790;28;20634;-65
2021/01/18 07:26:39;;;;;;;28.77;12.10;;;4.30;99.90;;;;;;4972603;28;20185;-64
2021/01/18 07:29:07;;;;;;;39.60;15.23;;;4.30;99.90;;;;;;4984737;28;20283;-66
2021/01/18 07:31:36;;;;;;;29.37;14.43;;;4.40;99.90;;;;;;4993206;28;20168;-65
2021/01/18 07:34:11;;;;;;;27.00;15.50;;;4.40;99.90;;;;;;4991249;28;20180;-64
2021/01/18 07:36:37;;;;;;;27.67;15.00;;;4.50;99.90;;;;;;4992599;28;20576;-65
2021/01/18 07:39:29;;;;;;;23.80;9.43;;;4.50;99.90;;;;;;4982610;28;20352;-66
2021/01/18 07:41:55;;;;;;;30.63;14.73;;;4.40;99.90;;;;;;4974415;28;20186;-65
2021/01/18 07:44:36;;;;;;;29.80;14.07;;;4.40;99.90;;;;;;4992742;28;20730;-63
2021/01/18 07:47:08;;;;;;;26.37;14.73;;;4.40;99.90;;;;;;4990902;28;20300;-65
2021/01/18 07:49:36;;;;;;;22.77;11.97;;;4.40;99.90;;;;;;4973071;28;20226;-66
2021/01/18 07:52:11;;;;;;;33.53;16.23;;;4.40;99.90;;;;;;4973388;28;20177;-65
2021/01/18 07:54:37;;;;;;;30.50;16.10;;;4.40;99.90;;;;;;4992431;28;20535;-65
2021/01/18 07:57:35;;;;;;;32.03;14.03;;;4.30;99.90;;;;;;4992077;28;20211;-65
2021/01/18 08:00:18;;;;;;;34.10;14.93;;;4.40;99.90;;;;;;4973516;28;20475;-65
2021/01/18 08:02:45;;;;;;;34.50;14.83;;;4.40;99.90;;;;;;4977374;28;20177;-65
2021/01/18 08:05:35;;;;;;;37.53;13.10;;;4.50;99.90;;;;;;4992900;28;20731;-64
2021/01/18 08:08:12;;;;;;;29.43;14.07;;;4.50;99.90;;;;;;4985391;28;20565;-64
2021/01/18 08:10:59;;;;;;;38.70;14.23;;;4.50;99.90;;;;;;4976399;28;20263;-64
2021/01/18 08:13:42;;;;;;;26.13;11.77;;;4.60;99.90;;;;;;4992131;28;20585;-65
2021/01/18 08:16:27;;;;;;;33.83;13.77;;;4.60;99.90;;;;;;4984818;28;20213;-64
2021/01/18 08:19:03;;;;;;;29.00;11.97;;;4.70;99.90;;;;;;4971187;28;20281;-65
2021/01/18 08:21:35;;;;;;;23.70;12.03;;;4.70;99.90;;;;;;4974537;28;20181;-65
2021/01/18 08:24:04;;;;;;;34.37;13.43;;;4.80;99.90;;;;;;4987366;28;20181;-65
2021/01/18 08:26:58;;;;;;;26.77;12.47;;;4.80;99.90;;;;;;4994279;28;20524;-64
2021/01/18 08:29:44;;;;;;;32.33;11.03;;;4.90;99.90;;;;;;4995972;28;20488;-65
2021/01/18 08:32:34;;;;;;;22.97;11.37;;;5.00;99.90;;;;;;4982247;28;20707;-64
2021/01/18 08:35:01;;;;;;;20.20;9.80;;;5.10;99.90;;;;;;4976590;28;20655;-64
2021/01/18 08:37:29;;;;;;;26.17;8.87;;;5.10;99.90;;;;;;4990761;28;20204;-65
2021/01/18 08:40:00;;;;;;;17.83;8.70;;;5.20;99.90;;;;;;4995955;28;20169;-66
2021/01/18 08:42:28;;;;;;;21.23;10.30;;;5.30;99.90;;;;;;4980985;28;20225;-65
2021/01/18 08:45:07;;;;;;;26.10;10.37;;;5.40;99.90;;;;;;4976268;28;20533;-65
2021/01/18 08:47:46;;;;;;;21.83;10.37;;;5.50;99.90;;;;;;4989911;28;20219;-65
2021/01/18 08:50:23;;;;;;;22.30;10.13;;;5.50;99.90;;;;;;4995520;28;20172;-64
2021/01/18 08:52:51;;;;;;;20.27;9.20;;;5.60;99.90;;;;;;4979093;28;20176;-66
2021/01/18 08:55:36;;;;;;;22.50;9.13;;;5.60;99.90;;;;;;4976076;28;20256;-64
2021/01/18 08:58:04;;;;;;;23.30;10.57;;;5.60;99.90;;;;;;4992509;28;20212;-66
2021/01/18 09:00:46;;;;;;;21.50;10.97;;;5.60;99.90;;;;;;4981931;28;20184;-65
2021/01/18 09:03:20;;;;;;;23.17;9.70;;;5.70;99.90;;;;;;4975934;28;20436;-66
2021/01/18 09:05:47;;;;;;;24.53;11.70;;;5.70;99.90;;;;;;4990575;28;20650;-66
2021/01/18 09:08:14;;;;;;;24.33;11.73;;;5.70;99.90;;;;;;4979365;28;20216;-65
2021/01/18 09:10:40;;;;;;;22.83;12.17;;;5.70;99.90;;;;;;4988671;28;20545;-65
2021/01/18 09:13:07;;;;;;;26.33;12.90;;;5.70;99.90;;;;;;4994046;28;20169;-65
2021/01/18 09:15:35;;;;;;;25.73;12.47;;;5.80;99.90;;;;;;4983171;28;20177;-66
2021/01/18 09:18:10;;;;;;;26.17;13.20;;;5.90;99.90;;;;;;4975200;28;20197;-66
2021/01/18 09:20:40;;;;;;;27.67;12.50;;;5.90;99.90;;;;;;4986574;28;20203;-64
2021/01/18 09:23:07;;;;;;;26.47;13.10;;;5.90;99.90;;;;;;4994630;28;20188;-65
2021/01/18 09:25:34;;;;;;;31.93;14.57;;;5.90;99.90;;;;;;4977136;28;20281;-65
2021/01/18 09:28:08;;;;;;;27.47;13.17;;;6.00;99.90;;;;;;4985379;28;20670;-66
2021/01/18 09:30:34;;;;;;;24.20;12.63;;;6.00;99.90;;;;;;4994393;28;20199;-65
2021/01/18 09:33:02;;;;;;;26.73;11.80;;;6.00;99.90;;;;;;4983614;28;20185;-65
2021/01/18 09:35:32;;;;;;;21.90;12.63;;;6.00;99.90;;;;;;4975086;28;20244;-65
2021/01/18 09:37:58;;;;;;;19.87;11.17;;;6.10;99.90;;;;;;4983590;28;20205;-65
2021/01/18 09:40:25;;;;;;;22.77;12.10;;;6.10;99.90;;;;;;4994753;28;20230;-67
2021/01/18 09:42:55;;;;;;;23.57;10.67;;;6.20;99.90;;;;;;4987068;28;20187;-66
2021/01/18 09:45:20;;;;;;;25.90;10.90;;;6.20;99.90;;;;;;4974895;28;20172;-65
2021/01/18 09:47:48;;;;;;;22.30;11.10;;;6.20;99.90;;;;;;4980458;28;20694;-66
2021/01/18 09:50:15;;;;;;;31.80;11.27;;;6.20;99.90;;;;;;4994804;28;20566;-64
2021/01/18 09:52:46;;;;;;;24.30;10.80;;;6.20;99.90;;;;;;4989228;28;20201;-66
2021/01/18 09:55:18;;;;;;;22.20;11.63;;;6.10;99.90;;;;;;4991751;28;20177;-66
2021/01/18 09:57:47;;;;;;;28.67;12.07;;;6.10;99.90;;;;;;4989271;28;20674;-66
2021/01/18 10:00:13;;;;;;;22.83;12.40;;;6.10;99.90;;;;;;4974973;28;20224;-65
2021/01/18 10:02:42;;;;;;;21.13;11.33;;;6.10;99.90;;;;;;4977359;28;20271;-65
2021/01/18 10:05:12;;;;;;;26.57;11.60;;;6.00;99.90;;;;;;4994203;28;20596;-64
2021/01/18 10:07:50;;;;;;;20.57;11.67;;;6.00;99.90;;;;;;4990892;28;20217;-63
2021/01/18 10:10:16;;;;;;;19.57;10.57;;;6.00;99.90;;;;;;4974665;28;20173;-64
2021/01/18 10:12:49;;;;;;;25.80;9.73;;;6.10;99.90;;;;;;4976273;28;20231;-63
2021/01/18 10:15:22;;;;;;;20.60;10.13;;;6.20;99.90;;;;;;4994044;28;20168;-64
2021/01/18 10:17:48;;;;;;;19.83;9.87;;;6.10;99.90;;;;;;4990891;28;20423;-61
2021/01/18 10:20:14;;;;;;;17.70;8.70;;;6.10;99.90;;;;;;4974381;28;20647;-61
2021/01/18 10:22:39;;;;;;;17.03;8.87;;;6.10;99.90;;;;;;4983487;28;20195;-61
2021/01/18 10:25:09;;;;;;;15.23;8.07;;;6.10;99.90;;;;;;4993679;28;20173;-63
2021/01/18 10:27:36;;;;;;;20.57;7.70;;;6.10;99.90;;;;;;4990128;28;20275;-63
2021/01/18 10:30:28;;;;;;;17.47;8.90;;;6.10;99.90;;;;;;4993758;28;20172;-63
2021/01/18 10:32:56;;;;;;;19.03;7.93;;;6.20;99.90;;;;;;4983164;28;20184;-63
2021/01/18 10:35:29;;;;;;;14.37;7.40;;;6.30;99.90;;;;;;4973993;28;20165;-64
2021/01/18 10:38:20;;;;;;;14.33;8.43;;;6.20;99.90;;;;;;4983115;28;20208;-63
2021/01/18 10:41:21;;;;;;;13.73;6.97;;;6.20;99.90;;;;;;4993294;28;20204;-64
2021/01/18 10:43:46;;;;;;;13.00;7.20;;;6.20;99.90;;;;;;4970932;28;20203;-63
2021/01/18 10:46:16;;;;;;;23.23;7.60;;;6.10;99.90;;;;;;4993127;28;20181;-63
2021/01/18 10:48:42;;;;;;;17.40;6.57;;;6.10;99.90;;;;;;4977225;28;20217;-63
2021/01/18 10:51:08;;;;;;;13.27;6.13;;;6.20;99.90;;;;;;4984312;28;20177;-64
2021/01/18 10:53:35;;;;;;;13.67;6.17;;;6.30;99.90;;;;;;4992949;28;20201;-64
2021/01/18 10:56:15;;;;;;;15.07;6.07;;;6.30;99.90;;;;;;4983636;28;20715;-63
2021/01/18 10:58:41;;;;;;;10.53;5.33;;;6.30;99.90;;;;;;4973108;28;20201;-64
2021/01/18 11:01:08;;;;;;;17.20;6.70;;;6.40;99.90;;;;;;4982976;28;20262;-62
2021/01/18 11:03:35;;;;;;;15.43;6.43;;;6.50;99.90;;;;;;4992738;28;20708;-64
2021/01/18 11:06:19;;;;;;;14.80;6.53;;;6.50;99.90;;;;;;4984650;28;20181;-64
2021/01/18 11:08:50;;;;;;;9.37;4.97;;;6.90;99.90;;;;;;4972828;28;20223;-64
2021/01/18 11:11:24;;;;;;;10.60;4.67;;;7.10;99.90;;;;;;4982912;28;20189;-65
2021/01/18 11:14:01;;;;;;;12.17;5.67;;;7.10;99.90;;;;;;4993184;28;20177;-63
2021/01/18 11:16:27;;;;;;;13.00;5.37;;;7.00;99.90;;;;;;4982202;28;20180;-64
2021/01/18 11:18:59;;;;;;;7.13;4.27;;;6.90;99.90;;;;;;4978475;28;20271;-62
2021/01/18 11:21:26;;;;;;;12.77;5.30;;;6.90;99.90;;;;;;4990802;28;20710;-62
2021/01/18 11:23:52;;;;;;;9.87;4.97;;;6.90;99.90;;;;;;4987148;28;20173;-63
2021/01/18 11:26:18;;;;;;;13.57;4.77;;;7.00;99.90;;;;;;4973138;28;20181;-62
2021/01/18 11:28:43;;;;;;;8.83;5.17;;;7.10;99.90;;;;;;4990877;28;20267;-63
2021/01/18 11:31:09;;;;;;;10.70;4.07;;;7.30;99.90;;;;;;4992568;28;20639;-63
2021/01/18 11:33:34;;;;;;;10.60;4.63;;;7.30;99.90;;;;;;4975037;28;20197;-64
2021/01/18 11:36:00;;;;;;;9.90;4.37;;;7.30;99.90;;;;;;4973075;28;20228;-61
2021/01/18 11:40:53;;;;;;;11.40;4.57;;;7.20;99.90;;;;;;4952341;29;20217;-65
2021/01/18 11:43:19;;;;;;;13.13;5.40;;;7.20;99.90;;;;;;4967480;28;20245;-65
2021/01/18 11:45:45;;;;;;;11.97;4.93;;;7.30;99.90;;;;;;4972221;28;20670;-65
2021/01/18 11:48:10;;;;;;;6.90;4.03;;;7.30;99.90;;;;;;4958950;28;20206;-64
2021/01/18 11:50:36;;;;;;;5.83;3.80;;;7.30;99.90;;;;;;4953768;28;20183;-65
2021/01/18 11:53:02;;;;;;;9.77;3.67;;;7.20;99.90;;;;;;4964970;28;20182;-65
2021/01/18 11:55:27;;;;;;;16.20;4.00;;;7.30;99.90;;;;;;4959142;28;20643;-64
2021/01/18 11:57:53;;;;;;;6.87;3.33;;;7.30;99.90;;;;;;4962547;28;20571;-65
2021/01/18 12:00:21;;;;;;;8.87;3.50;;;7.40;99.90;;;;;;4972530;28;20173;-64
2021/01/18 12:02:46;;;;;;;8.80;3.83;;;7.50;99.90;;;;;;4963567;28;20568;-64
2021/01/18 12:05:12;;;;;;;9.23;3.30;;;7.50;99.90;;;;;;4963405;28;20185;-64
2021/01/18 12:07:38;;;;;;;7.37;3.50;;;7.50;99.90;;;;;;4964855;28;20218;-65
2021/01/18 12:10:05;;;;;;;4.97;3.20;;;7.60;99.90;;;;;;4953675;28;20636;-64
2021/01/18 12:12:33;;;;;;;10.67;3.97;;;7.70;99.90;;;;;;4958286;28;20184;-65
2021/01/18 12:14:59;;;;;;;6.63;3.60;;;8.00;99.90;;;;;;4971543;28;20188;-65
2021/01/18 12:17:24;;;;;;;12.40;2.90;;;8.30;99.90;;;;;;4952738;28;20202;-65
2021/01/18 12:19:50;;;;;;;8.63;3.27;;;8.50;99.90;;;;;;4953254;28;20170;-65
2021/01/18 12:22:17;;;;;;;9.07;2.80;;;8.40;99.90;;;;;;4971741;28;20623;-64
2021/01/18 12:24:42;;;;;;;8.60;3.47;;;8.30;99.90;;;;;;4972747;28;20234;-64
2021/01/18 12:27:09;;;;;;;10.83;3.60;;;8.30;99.90;;;;;;4955410;28;20210;-64
2021/01/18 12:29:34;;;;;;;8.57;3.33;;;8.20;99.90;;;;;;4952870;28;20178;-64
2021/01/18 12:32:00;;;;;;;8.37;3.50;;;8.10;99.90;;;;;;4968473;28;20220;-64
2021/01/18 12:34:26;;;;;;;9.67;4.00;;;7.80;99.90;;;;;;4972507;28;20244;-64
2021/01/18 12:36:55;;;;;;;5.67;3.13;;;7.90;99.90;;;;;;4958171;28;20190;-64
2021/01/18 12:39:22;;;;;;;11.80;4.20;;;7.80;99.90;;;;;;4952892;28;20206;-65
2021/01/18 12:41:49;;;;;;;8.10;2.70;;;7.70;99.90;;;;;;4965410;28;20177;-65
2021/01/18 12:44:14;;;;;;;5.40;2.47;;;7.80;99.90;;;;;;4963932;28;20170;-65
2021/01/18 12:46:40;;;;;;;8.07;3.17;;;7.70;99.90;;;;;;4951177;28;20293;-64
2021/01/18 12:49:06;;;;;;;6.07;3.30;;;7.70;99.90;;;;;;4959289;28;20467;-65
2021/01/18 12:51:31;;;;;;;9.93;3.17;;;7.90;99.90;;;;;;4972129;28;20181;-64
2021/01/18 12:53:57;;;;;;;6.10;3.53;;;8.20;99.90;;;;;;4970808;28;20178;-65
2021/01/18 12:56:31;;;;;;;7.47;2.77;;;8.30;99.90;;;;;;4954626;28;20225;-64
2021/01/18 12:58:57;;;;;;;7.67;3.30;;;8.20;99.90;;;;;;4971962;28;20224;-64